Time;durP1;ratioP1;P1;durP2;ratioP2;P2;SDS_P1;SDS_P2;PMS_P1;PMS_P2;Temp;Humidity;BMP_temperature;BMP_pressure;BME280_temperature;BME280_humidity;BME280_pressure;Samples;Min_cycle;Max_cycle;Signal;HPM_P1;HPM_P2
2023/10/14 00:00:55;;;;;;;;;2.00;2.00;;;;;22.53;54.74;99724.08;110010;1253;19961;-40
2023/10/14 00:03:33;;;;;;;;;1.00;1.00;;;;;22.53;54.72;99721.89;110018;1253;20801;-38
2023/10/14 00:06:05;;;;;;;;;1.00;1.00;;;;;22.53;54.44;99727.24;110003;1252;19596;-38
2023/10/14 00:08:33;;;;;;;;;1.00;1.00;;;;;22.52;54.78;99723.29;110018;1267;18745;-39
2023/10/14 00:11:00;;;;;;;;;2.00;2.00;;;;;22.53;54.50;99718.73;109986;1252;20852;-39
2023/10/14 00:13:31;;;;;;;;;1.00;1.00;;;;;22.53;54.35;99719.06;110018;1267;18404;-39
2023/10/14 00:16:01;;;;;;;;;2.00;2.00;;;;;22.53;54.46;99720.38;110006;1261;19957;-39
2023/10/14 00:18:29;;;;;;;;;1.00;1.00;;;;;22.52;54.44;99712.15;110053;1267;19360;-39
2023/10/14 00:20:56;;;;;;;;;1.00;1.00;;;;;22.50;54.65;99711.75;110043;1267;18399;-39
2023/10/14 00:23:24;;;;;;;;;3.33;2.00;;;;;22.54;54.23;99713.31;110020;1254;20145;-40
2023/10/14 00:25:52;;;;;;;;;2.00;2.00;;;;;22.51;54.43;99708.58;110024;1259;20696;-38
2023/10/14 00:28:20;;;;;;;;;2.00;2.00;;;;;22.51;54.26;99703.15;110010;1252;22352;-39
2023/10/14 00:30:47;;;;;;;;;4.00;4.00;;;;;22.51;54.39;99701.20;110003;1267;18627;-38
2023/10/14 00:33:15;;;;;;;;;1.00;1.00;;;;;22.50;54.30;99696.75;109983;1259;20746;-38
2023/10/14 00:35:43;;;;;;;;;2.00;2.00;;;;;22.51;54.35;99691.05;109985;1266;20221;-39
2023/10/14 00:38:13;;;;;;;;;1.00;1.00;;;;;22.51;54.19;99688.60;110002;1267;18639;-39
2023/10/14 00:40:45;;;;;;;;;1.00;1.00;;;;;22.51;54.31;99690.89;110024;1254;20810;-39
2023/10/14 00:43:13;;;;;;;;;2.00;2.00;;;;;22.51;54.32;99689.38;110037;1251;19610;-39
2023/10/14 00:45:44;;;;;;;;;1.00;1.00;;;;;22.51;54.23;99691.39;109986;1260;22173;-38
2023/10/14 00:48:13;;;;;;;;;1.00;1.00;;;;;22.52;54.16;99686.89;110007;1251;20645;-39
2023/10/14 00:50:41;;;;;;;;;3.00;2.00;;;;;22.52;54.07;99694.04;110057;1267;19852;-39
2023/10/14 00:53:08;;;;;;;;;2.00;2.00;;;;;22.52;54.17;99688.58;110018;1261;21157;-39
2023/10/14 00:55:45;;;;;;;;;2.00;1.00;;;;;22.51;54.02;99679.87;109998;1253;20934;-38
2023/10/14 00:58:13;;;;;;;;;1.00;1.00;;;;;22.50;53.97;99679.01;110021;1252;19660;-38
2023/10/14 01:00:56;;;;;;;;;1.00;1.00;;;;;22.51;54.14;99667.41;110024;1253;20146;-38
2023/10/14 01:03:24;;;;;;;;;2.00;2.00;;;;;22.51;53.86;99662.08;110019;1260;20755;-38
2023/10/14 01:05:51;;;;;;;;;2.00;2.00;;;;;22.50;53.79;99651.94;109995;1267;18525;-38
2023/10/14 01:08:22;;;;;;;;;1.00;1.00;;;;;22.50;53.95;99633.05;110019;1254;20070;-40
2023/10/14 01:10:50;;;;;;;;;2.00;2.00;;;;;22.52;54.06;99624.11;110031;1267;19367;-39
2023/10/14 01:13:17;;;;;;;;;1.00;1.00;;;;;22.51;53.79;99611.04;110017;1253;19773;-39
2023/10/14 01:15:47;;;;;;;;;1.00;1.00;;;;;22.50;53.94;99600.64;109980;1260;20859;-39
2023/10/14 01:18:15;;;;;;;;;2.00;2.00;;;;;22.49;53.78;99590.57;110036;1253;20799;-40
2023/10/14 01:20:43;;;;;;;;;1.00;1.00;;;;;22.49;53.68;99587.17;109990;1253;19587;-40
2023/10/14 01:23:14;;;;;;;;;2.00;1.00;;;;;22.48;53.73;99577.76;110028;1259;20113;-38
2023/10/14 01:25:47;;;;;;;;;1.00;1.00;;;;;22.49;53.84;99570.25;109983;1261;20742;-40
2023/10/14 01:28:15;;;;;;;;;1.00;1.00;;;;;22.51;53.63;99569.40;110027;1252;19603;-38
2023/10/14 01:30:45;;;;;;;;;1.67;1.00;;;;;22.49;53.58;99570.09;109989;1253;20052;-38
2023/10/14 01:33:16;;;;;;;;;2.00;1.00;;;;;22.50;53.76;99563.73;109992;1253;20801;-36
2023/10/14 01:35:45;;;;;;;;;1.00;1.00;;;;;22.49;53.73;99560.05;110023;1253;18404;-38
2023/10/14 01:38:13;;;;;;;;;2.00;2.00;;;;;22.49;53.75;99551.34;110024;1266;18604;-39
2023/10/14 01:40:48;;;;;;;;;1.00;1.00;;;;;22.48;53.79;99547.35;110014;1266;19359;-39
2023/10/14 01:43:16;;;;;;;;;1.00;1.00;;;;;22.50;53.48;99541.69;110021;1251;19529;-39
2023/10/14 01:45:48;;;;;;;;;1.50;1.50;;;;;22.52;53.49;99536.63;110032;1266;18561;-39
2023/10/14 01:48:19;;;;;;;;;1.50;1.50;;;;;22.52;53.56;99533.41;110039;1253;20789;-38
2023/10/14 01:50:47;;;;;;;;;1.00;1.00;;;;;22.52;53.46;99530.17;110033;1251;19578;-40
2023/10/14 01:53:17;;;;;;;;;2.00;1.00;;;;;22.50;53.55;99520.79;110037;1261;20073;-39
2023/10/14 01:55:45;;;;;;;;;2.00;1.00;;;;;22.51;53.38;99519.25;110047;1251;19335;-39
2023/10/14 01:58:21;;;;;;;;;1.00;1.00;;;;;22.51;53.51;99512.54;110053;1251;19658;-39
2023/10/14 02:00:52;;;;;;;;;1.00;1.00;;;;;22.51;53.36;99503.52;110051;1261;20077;-39
2023/10/14 02:03:19;;;;;;;;;1.00;1.00;;;;;22.50;53.53;99497.77;110053;1266;19409;-39
2023/10/14 02:05:51;;;;;;;;;2.00;1.50;;;;;22.49;53.33;99488.83;110039;1261;19455;-39
2023/10/14 02:08:21;;;;;;;;;2.00;2.00;;;;;22.48;53.37;99477.23;110028;1251;20101;-38
2023/10/14 02:10:50;;;;;;;;;2.00;2.00;;;;;22.48;53.30;99466.96;110008;1266;19492;-38
2023/10/14 02:13:17;;;;;;;;;1.00;1.00;;;;;22.48;53.14;99471.71;110045;1253;22200;-38
2023/10/14 02:15:48;;;;;;;;;1.00;1.00;;;;;22.48;53.48;99465.94;110029;1251;18572;-39
2023/10/14 02:18:16;;;;;;;;;1.00;1.00;;;;;22.49;53.34;99456.53;109991;1253;19333;-38
2023/10/14 02:20:57;;;;;;;;;1.00;1.00;;;;;22.47;53.54;99447.57;109960;1251;19632;-38
2023/10/14 02:23:24;;;;;;;;;1.00;1.00;;;;;22.48;53.31;99437.23;109939;1251;20080;-38
2023/10/14 02:25:56;;;;;;;;;2.00;2.00;;;;;22.47;53.34;99434.31;109948;1253;20741;-37
2023/10/14 02:28:23;;;;;;;;;2.00;2.00;;;;;22.47;53.39;99437.48;110020;1261;20214;-40
2023/10/14 02:30:51;;;;;;;;;1.00;1.00;;;;;22.48;53.27;99431.14;110027;1266;18531;-38
2023/10/14 02:33:19;;;;;;;;;1.00;1.00;;;;;22.49;53.38;99427.87;110017;1253;20722;-38
2023/10/14 02:35:46;;;;;;;;;1.00;1.00;;;;;22.47;53.26;99425.42;110015;1251;20770;-38
2023/10/14 02:38:13;;;;;;;;;1.00;1.00;;;;;22.48;53.24;99418.20;110031;1266;18879;-38
2023/10/14 02:40:41;;;;;;;;;1.00;1.00;;;;;22.49;53.27;99411.66;110020;1251;20777;-38
2023/10/14 02:43:08;;;;;;;;;1.00;1.00;;;;;22.49;53.23;99403.75;109951;1251;19639;-38
2023/10/14 02:45:40;;;;;;;;;1.67;1.67;;;;;22.49;53.00;99397.63;110096;1251;20455;-38
2023/10/14 02:48:11;;;;;;;;;1.00;1.00;;;;;22.48;53.14;99389.31;110074;1266;19395;-38
2023/10/14 02:50:38;;;;;;;;;1.50;1.00;;;;;22.48;53.04;99391.55;110041;1266;22216;-38
2023/10/14 02:53:07;;;;;;;;;1.00;1.00;;;;;22.47;53.21;99391.04;110027;1251;21928;-40
2023/10/14 02:58:20;;;;;;;;;3.00;2.00;;;;;22.49;53.06;99390.27;110046;1253;20953;-39
2023/10/14 03:00:49;;;;;;;;;1.00;1.00;;;;;22.47;53.19;99392.41;110055;1266;18608;-38
2023/10/14 03:03:21;;;;;;;;;1.00;1.00;;;;;22.48;53.03;99399.96;109944;1251;20816;-38
2023/10/14 03:05:55;;;;;;;;;1.00;1.00;;;;;22.49;52.84;99398.34;110007;1258;19697;-38
2023/10/14 03:08:22;;;;;;;;;1.00;1.00;;;;;22.47;53.14;99392.77;110066;1253;20100;-38
2023/10/14 03:10:55;;;;;;;;;1.00;1.00;;;;;22.48;52.91;99392.27;110037;1266;21897;-38
2023/10/14 03:13:22;;;;;;;;;1.00;1.00;;;;;22.47;53.02;99392.06;110016;1259;20984;-38
2023/10/14 03:15:52;;;;;;;;;2.00;2.00;;;;;22.48;52.98;99392.09;110014;1266;22307;-38
2023/10/14 03:18:20;;;;;;;;;1.00;1.00;;;;;22.49;52.97;99393.77;110039;1251;20679;-38
2023/10/14 03:21:00;;;;;;;;;1.50;1.00;;;;;22.49;53.02;99395.89;110025;1251;19577;-38
2023/10/14 03:23:28;;;;;;;;;1.00;1.00;;;;;22.47;53.00;99387.48;110019;1253;20047;-38
2023/10/14 03:26:05;;;;;;;;;1.00;1.00;;;;;22.47;52.91;99384.33;110055;1251;21500;-40
2023/10/14 03:28:37;;;;;;;;;1.50;1.50;;;;;22.48;52.67;99384.68;110032;1251;19602;-38
2023/10/14 03:31:08;;;;;;;;;1.00;1.00;;;;;22.48;52.61;99385.81;110046;1251;20020;-39
2023/10/14 03:33:42;;;;;;;;;1.00;1.00;;;;;22.49;52.92;99377.17;109995;1251;20803;-39
2023/10/14 03:36:15;;;;;;;;;1.50;1.50;;;;;22.48;53.01;99369.66;110041;1260;19531;-39
2023/10/14 03:38:42;;;;;;;;;1.00;1.00;;;;;22.49;52.98;99372.42;110043;1259;19992;-38
2023/10/14 03:41:18;;;;;;;;;4.00;2.00;;;;;22.48;52.86;99371.04;110021;1250;20785;-40
2023/10/14 03:43:49;;;;;;;;;2.00;2.00;;;;;22.46;53.00;99372.02;110028;1266;18227;-40
2023/10/14 03:46:18;;;;;;;;;1.00;1.00;;;;;22.45;52.82;99369.10;110042;1250;19982;-39
2023/10/14 03:48:48;;;;;;;;;1.00;1.00;;;;;22.46;52.78;99372.51;110012;1258;20663;-39
2023/10/14 03:51:24;;;;;;;;;1.00;1.00;;;;;22.47;52.67;99374.77;110015;1250;20640;-39
2023/10/14 03:53:52;;;;;;;;;2.00;2.00;;;;;22.45;52.71;99371.55;110030;1251;18862;-39
2023/10/14 03:56:21;;;;;;;;;1.67;1.67;;;;;22.46;52.88;99367.60;110005;1250;20728;-39
2023/10/14 03:58:49;;;;;;;;;1.00;1.00;;;;;22.47;52.61;99365.33;110030;1250;19617;-39
2023/10/14 04:01:22;;;;;;;;;2.00;2.00;;;;;22.46;52.59;99366.89;110021;1250;20026;-39
2023/10/14 04:03:52;;;;;;;;;1.00;1.00;;;;;22.45;52.73;99359.21;110052;1259;20632;-38
2023/10/14 04:06:19;;;;;;;;;1.00;1.00;;;;;22.45;52.80;99362.98;110031;1266;18378;-38
2023/10/14 04:08:47;;;;;;;;;2.00;2.00;;;;;22.46;52.79;99356.27;110062;1250;20088;-40
2023/10/14 04:11:15;;;;;;;;;1.00;1.00;;;;;22.47;52.69;99361.95;110014;1266;19694;-38
2023/10/14 04:13:50;;;;;;;;;1.00;1.00;;;;;22.47;52.57;99354.89;110017;1266;18457;-38
2023/10/14 04:16:27;;;;;;;;;1.00;1.00;;;;;22.45;52.63;99347.54;110041;1266;18569;-39
2023/10/14 04:18:59;;;;;;;;;1.00;1.00;;;;;22.45;52.76;99340.02;110024;1266;20678;-39
2023/10/14 04:21:36;;;;;;;;;1.00;1.00;;;;;22.46;52.47;99330.88;110066;1250;19649;-38
2023/10/14 04:24:13;;;;;;;;;2.00;1.00;;;;;22.48;52.47;99327.16;110040;1266;18838;-39
2023/10/14 04:26:41;;;;;;;;;1.00;1.00;;;;;22.48;52.40;99327.55;110003;1266;22845;-38
2023/10/14 04:29:18;;;;;;;;;2.00;2.00;;;;;22.47;52.53;99321.57;110021;1250;19987;-38
2023/10/14 04:31:55;;;;;;;;;4.00;4.00;;;;;22.46;52.54;99324.33;110055;1266;18605;-38
2023/10/14 04:34:23;;;;;;;;;1.00;1.00;;;;;22.47;52.38;99320.48;109996;1250;20664;-39
2023/10/14 04:36:57;;;;;;;;;1.00;1.00;;;;;22.45;52.37;99310.42;109967;1250;19640;-38
2023/10/14 04:39:32;;;;;;;;;1.50;1.50;;;;;22.45;52.56;99305.52;109995;1266;18642;-38
2023/10/14 04:42:22;;;;;;;;;1.00;1.00;;;;;22.47;52.22;99314.48;110038;1251;19181;-38
2023/10/14 04:44:56;;;;;;;;;1.00;1.00;;;;;22.45;52.52;99314.31;110024;1253;19600;-39
2023/10/14 04:47:36;;;;;;;;;1.00;1.00;;;;;22.44;52.53;99319.85;110003;1250;20076;-38
2023/10/14 04:50:09;;;;;;;;;1.00;1.00;;;;;22.44;52.57;99318.39;110022;1250;20810;-38
2023/10/14 04:52:37;;;;;;;;;1.00;1.00;;;;;22.44;52.36;99309.39;109905;1250;182279;-39
2023/10/14 04:55:18;;;;;;;;;1.00;1.00;;;;;22.45;52.51;99313.60;110028;1250;19990;-39
2023/10/14 04:57:51;;;;;;;;;2.00;1.00;;;;;22.44;52.30;99309.98;110009;1250;20746;-39
2023/10/14 05:00:31;;;;;;;;;1.00;1.00;;;;;22.43;52.54;99310.70;110046;1250;19681;-39
2023/10/14 05:02:59;;;;;;;;;1.00;1.00;;;;;22.44;52.10;99309.27;110039;1259;19937;-39
2023/10/14 05:05:30;;;;;;;;;2.00;2.00;;;;;22.43;52.46;99307.73;110035;1266;20685;-39
2023/10/14 05:08:02;;;;;;;;;1.00;1.00;;;;;22.45;52.50;99299.09;110017;1250;19588;-39
2023/10/14 05:10:29;;;;;;;;;1.00;1.00;;;;;22.44;52.13;99294.80;110035;1266;18760;-39
2023/10/14 05:12:57;;;;;;;;;2.00;2.00;;;;;22.46;52.23;99298.00;110043;1250;22059;-39
2023/10/14 05:15:27;;;;;;;;;2.00;2.00;;;;;22.46;51.98;99303.20;110017;1266;18290;-39
2023/10/14 05:18:00;;;;;;;;;1.00;1.00;;;;;22.44;52.42;99300.70;110030;1266;18728;-39
2023/10/14 05:20:47;;;;;;;;;1.00;1.00;;;;;22.41;52.66;99297.67;110034;1250;20921;-38
2023/10/14 05:23:19;;;;;;;;;2.00;1.50;;;;;22.43;52.52;99293.77;110026;1250;19681;-39
2023/10/14 05:25:48;;;;;;;;;1.00;1.00;;;;;22.42;52.38;99289.90;110052;1250;22530;-39
2023/10/14 05:28:16;;;;;;;;;2.00;2.00;;;;;22.42;52.39;99290.33;110017;1266;21028;-39
2023/10/14 05:30:46;;;;;;;;;2.00;2.00;;;;;22.45;52.64;99286.58;109945;1250;19649;-39
2023/10/14 05:33:14;;;;;;;;;2.00;2.00;;;;;22.45;52.54;99282.44;110026;1250;20101;-41
2023/10/14 05:35:42;;;;;;;;;1.50;1.50;;;;;22.47;52.38;99287.13;110015;1266;21739;-40
2023/10/14 05:38:11;;;;;;;;;2.00;2.00;;;;;22.49;52.20;99295.55;110020;1250;19607;-38
2023/10/14 05:40:38;;;;;;;;;1.00;1.00;;;;;22.48;52.59;99300.35;110007;1250;20091;-39
2023/10/14 05:43:06;;;;;;;;;2.00;2.00;;;;;22.50;52.93;99289.99;110034;1250;20748;-39
2023/10/14 05:45:34;;;;;;;;;1.00;1.00;;;;;22.49;53.14;99284.83;110009;1250;19543;-39
2023/10/14 05:48:03;;;;;;;;;1.00;1.00;;;;;22.50;52.89;99288.10;110045;1266;18651;-39
2023/10/14 05:50:30;;;;;;;;;2.00;2.00;;;;;22.53;52.76;99288.88;110016;1266;19220;-39
2023/10/14 05:52:58;;;;;;;;;4.00;2.00;;;;;22.50;52.97;99294.67;110023;1250;19655;-38
2023/10/14 05:55:25;;;;;;;;;2.00;2.00;;;;;22.47;53.39;99294.92;110019;1260;20077;-38
2023/10/14 05:57:53;;;;;;;;;3.00;3.00;;;;;22.46;53.63;99300.19;110044;1250;21862;-39
2023/10/14 06:00:25;;;;;;;;;2.00;2.00;;;;;22.46;53.37;99306.48;110047;1251;19560;-39
2023/10/14 06:02:53;;;;;;;;;2.67;2.00;;;;;22.50;53.29;99311.92;110027;1250;20498;-40
2023/10/14 06:05:20;;;;;;;;;2.00;2.00;;;;;22.51;53.52;99302.91;110027;1260;20621;-39
2023/10/14 06:07:47;;;;;;;;;4.00;4.00;;;;;22.51;53.84;99296.99;110050;1250;19606;-39
2023/10/14 06:10:20;;;;;;;;;4.00;4.00;;;;;22.50;54.09;99304.11;110021;1259;22948;-37
2023/10/14 06:12:48;;;;;;;;;4.00;2.00;;;;;22.51;54.15;99302.13;110020;1258;20933;-37
2023/10/14 06:15:17;;;;;;;;;2.00;2.00;;;;;22.54;53.72;99300.41;110041;1266;19738;-38
2023/10/14 06:17:45;;;;;;;;;2.00;2.00;;;;;22.53;53.99;99303.86;110037;1251;19933;-38
2023/10/14 06:20:13;;;;;;;;;4.00;4.00;;;;;22.52;54.19;99294.95;110026;1250;22071;-39
2023/10/14 06:22:41;;;;;;;;;4.00;4.00;;;;;22.52;54.38;99296.03;110013;1266;19837;-38
2023/10/14 06:25:14;;;;;;;;;4.67;4.00;;;;;22.63;55.78;99298.89;110043;1250;20196;-38
2023/10/14 06:27:45;;;;;;;;;3.00;3.00;;;;;22.66;56.72;99298.93;109994;1250;20804;-39
2023/10/14 06:30:18;;;;;;;;;5.00;4.00;;;;;22.71;56.85;99290.05;110040;1251;19668;-38
2023/10/14 06:32:47;;;;;;;;;4.00;4.00;;;;;22.71;56.72;99284.27;109969;1266;18639;-38
2023/10/14 06:35:15;;;;;;;;;4.00;4.00;;;;;22.72;57.14;99291.26;110037;1266;19334;-38
2023/10/14 06:37:45;;;;;;;;;4.50;4.50;;;;;22.75;56.83;99294.52;110000;1266;18500;-39
2023/10/14 06:40:13;;;;;;;;;4.00;4.00;;;;;22.68;57.64;99290.71;110018;1251;18611;-39
2023/10/14 06:42:43;;;;;;;;;4.00;4.00;;;;;22.74;58.49;99294.20;110027;1251;20792;-39
2023/10/14 06:45:13;;;;;;;;;5.00;4.00;;;;;22.76;58.31;99293.23;110034;1251;19594;-38
2023/10/14 06:47:45;;;;;;;;;4.00;4.00;;;;;22.77;58.12;99295.65;110011;1251;18607;-38
2023/10/14 06:50:13;;;;;;;;;4.00;4.00;;;;;22.74;57.78;99291.14;110031;1263;19330;-39
2023/10/14 06:52:40;;;;;;;;;4.00;4.00;;;;;22.78;57.74;99286.17;110003;1251;20874;-37
2023/10/14 06:55:08;;;;;;;;;4.00;4.00;;;;;22.78;57.53;99280.27;109999;1251;18636;-39
2023/10/14 06:57:36;;;;;;;;;3.00;3.00;;;;;22.77;57.11;99281.54;110017;1266;19360;-39
2023/10/14 07:00:10;;;;;;;;;4.00;4.00;;;;;22.77;56.81;99282.70;110038;1259;19677;-39
2023/10/14 07:02:37;;;;;;;;;5.00;5.00;;;;;22.77;56.70;99272.45;110020;1251;20028;-39
2023/10/14 07:05:05;;;;;;;;;4.00;4.00;;;;;22.72;56.66;99266.38;110018;1251;22517;-38
2023/10/14 07:07:33;;;;;;;;;4.00;4.00;;;;;22.67;56.99;99268.80;110007;1251;19554;-39
2023/10/14 07:10:00;;;;;;;;;4.00;4.00;;;;;22.69;56.77;99269.67;110006;1251;18643;-39
2023/10/14 07:12:28;;;;;;;;;6.00;5.00;;;;;22.68;56.68;99277.80;110013;1251;20950;-39
2023/10/14 07:14:55;;;;;;;;;5.00;5.00;;;;;22.66;56.41;99277.73;110018;1266;18563;-39
2023/10/14 07:17:25;;;;;;;;;6.00;6.00;;;;;22.61;55.64;99286.07;109997;1251;18659;-39
2023/10/14 07:19:52;;;;;;;;;8.00;6.00;;;;;22.59;55.12;99288.73;110036;1251;20843;-40
2023/10/14 07:22:21;;;;;;;;;6.00;6.00;;;;;22.58;54.73;99288.05;109998;1266;18801;-40
2023/10/14 07:24:48;;;;;;;;;6.00;6.00;;;;;22.58;53.72;99279.48;110041;1251;20090;-37
2023/10/14 07:27:17;;;;;;;;;6.00;5.00;;;;;22.56;52.87;99272.67;109977;1251;20766;-38
2023/10/14 07:29:45;;;;;;;;;7.00;5.50;;;;;22.56;53.47;99275.68;109980;1253;19592;-38
2023/10/14 07:32:15;;;;;;;;;9.50;9.00;;;;;22.53;53.40;99265.98;110006;1267;19883;-40
2023/10/14 07:34:43;;;;;;;;;7.00;7.00;;;;;22.55;52.85;99266.86;110013;1254;20832;-38
2023/10/14 07:37:13;;;;;;;;;8.00;8.00;;;;;22.57;52.48;99269.49;110008;1253;22738;-38
2023/10/14 07:39:40;;;;;;;;;9.00;8.50;;;;;22.55;51.74;99272.05;109986;1267;18799;-38
2023/10/14 07:42:13;;;;;;;;;14.00;10.00;;;;;22.54;50.59;99270.88;109957;1267;20832;-39
2023/10/14 07:44:40;;;;;;;;;8.33;8.00;;;;;22.54;50.68;99271.32;109972;1252;19631;-39
2023/10/14 07:47:10;;;;;;;;;8.33;8.33;;;;;22.56;50.23;99270.23;109967;1267;20885;-39
2023/10/14 07:49:38;;;;;;;;;8.50;8.00;;;;;22.57;50.46;99265.93;110003;1253;20756;-39
2023/10/14 07:52:14;;;;;;;;;6.00;6.00;;;;;22.64;50.56;99267.65;109990;1254;19566;-40
2023/10/14 07:54:42;;;;;;;;;7.50;7.00;;;;;22.70;50.06;99264.90;109975;1254;20290;-39
2023/10/14 07:57:12;;;;;;;;;5.00;5.00;;;;;22.73;50.03;99258.25;109986;1254;20777;-39
2023/10/14 07:59:39;;;;;;;;;12.00;9.00;;;;;22.76;49.90;99260.51;109856;1253;19718;-39
2023/10/14 08:02:07;;;;;;;;;77.50;55.00;;;;;22.80;49.98;99260.63;110001;1267;18651;-39
2023/10/14 08:04:35;;;;;;;;;297.33;203.33;;;;;22.83;50.13;99258.42;110002;1253;20796;-39
2023/10/14 08:07:05;;;;;;;;;3917.50;3894.00;;;;;22.92;49.80;99256.51;110008;1267;20026;-40
2023/10/14 08:09:35;;;;;;;;;373.50;271.00;;;;;22.88;50.05;99252.58;109977;1254;20543;-39
2023/10/14 08:12:02;;;;;;;;;480.00;328.00;;;;;22.97;49.35;99258.36;109978;1267;20984;-38
2023/10/14 08:14:30;;;;;;;;;306.00;230.00;;;;;22.97;49.34;99262.52;109982;1261;20178;-38
2023/10/14 08:16:58;;;;;;;;;281.00;200.00;;;;;22.93;49.21;99258.38;109960;1260;20338;-41
2023/10/14 08:19:26;;;;;;;;;159.50;121.50;;;;;22.93;48.86;99260.36;109934;1254;20672;-41
2023/10/14 08:21:53;;;;;;;;;138.00;103.00;;;;;22.89;48.75;99266.91;109925;1253;20415;-40
2023/10/14 08:24:21;;;;;;;;;131.00;96.00;;;;;22.85;48.58;99268.52;109929;1253;20254;-41
2023/10/14 08:26:49;;;;;;;;;104.50;76.00;;;;;22.88;48.59;99274.88;109881;1251;19491;-39
2023/10/14 08:29:19;;;;;;;;;82.00;58.00;;;;;22.84;48.59;99267.45;110023;1250;20378;-38
2023/10/14 08:31:51;;;;;;;;;82.00;59.00;;;;;22.94;48.25;99271.09;110060;1266;18729;-38
2023/10/14 08:34:18;;;;;;;;;77.00;58.00;;;;;22.98;47.96;99271.92;110028;1259;20905;-39
2023/10/14 08:36:46;;;;;;;;;75.00;52.00;;;;;23.08;47.60;99266.89;110008;1250;20009;-40
2023/10/14 08:39:14;;;;;;;;;63.50;44.00;;;;;23.16;47.41;99258.46;110056;1266;18758;-39
2023/10/14 08:41:41;;;;;;;;;47.50;39.50;;;;;23.27;46.66;99259.03;110036;1250;20813;-39
2023/10/14 08:44:10;;;;;;;;;48.50;39.00;;;;;23.33;46.37;99259.61;109998;1250;20028;-39
2023/10/14 08:46:39;;;;;;;;;37.00;29.00;;;;;23.38;45.92;99266.39;110066;1250;20141;-39
2023/10/14 08:49:07;;;;;;;;;30.00;25.50;;;;;23.30;46.00;99263.89;110003;1266;19346;-40
2023/10/14 08:51:35;;;;;;;;;30.00;24.00;;;;;23.32;45.51;99259.61;110013;1250;19970;-39
2023/10/14 08:54:06;;;;;;;;;24.00;18.00;;;;;23.24;45.44;99258.49;110029;1266;18872;-38
2023/10/14 08:56:34;;;;;;;;;20.00;17.00;;;;;23.26;45.50;99265.04;110032;1259;20623;-39
2023/10/14 08:59:01;;;;;;;;;16.00;13.50;;;;;23.25;45.59;99261.45;110044;1266;18581;-38
2023/10/14 09:01:31;;;;;;;;;18.00;14.00;;;;;23.27;45.81;99262.44;109998;1251;20111;-39
2023/10/14 09:03:59;;;;;;;;;14.00;13.00;;;;;23.21;45.83;99268.29;110028;1266;20669;-39
2023/10/14 09:06:27;;;;;;;;;10.67;10.67;;;;;23.16;45.63;99275.30;110043;1266;18557;-38
2023/10/14 09:08:54;;;;;;;;;13.00;11.00;;;;;23.18;45.01;99273.28;110042;1251;20164;-38
2023/10/14 09:11:21;;;;;;;;;13.00;12.00;;;;;23.21;44.73;99285.04;110036;1251;20854;-39
2023/10/14 09:13:49;;;;;;;;;13.00;13.00;;;;;23.27;44.63;99283.11;110030;1251;19984;-38
2023/10/14 09:16:16;;;;;;;;;12.00;10.00;;;;;23.19;44.44;99296.13;109996;1251;20101;-38
2023/10/14 09:18:44;;;;;;;;;10.00;9.00;;;;;23.09;44.81;99304.16;110051;1266;19365;-38
2023/10/14 09:21:13;;;;;;;;;10.00;9.50;;;;;23.04;44.80;99307.46;110029;1252;19988;-37
2023/10/14 09:23:40;;;;;;;;;9.00;9.00;;;;;23.04;44.41;99309.16;110043;1259;19992;-38
2023/10/14 09:26:08;;;;;;;;;10.00;10.00;;;;;23.03;44.40;99320.57;110027;1266;20739;-38
2023/10/14 09:28:35;;;;;;;;;12.00;9.00;;;;;23.01;44.53;99324.33;110035;1266;22769;-38
2023/10/14 09:31:03;;;;;;;;;10.00;10.00;;;;;23.00;44.56;99332.71;110047;1251;22820;-38
2023/10/14 09:33:31;;;;;;;;;11.00;11.00;;;;;22.99;44.85;99339.74;110041;1250;20670;-38
2023/10/14 09:35:59;;;;;;;;;12.00;10.00;;;;;23.01;45.35;99350.29;110026;1253;20031;-39
2023/10/14 09:38:27;;;;;;;;;10.00;9.00;;;;;23.02;45.27;99360.56;110006;1259;19983;-39
2023/10/14 09:40:54;;;;;;;;;9.00;8.00;;;;;22.99;45.30;99366.28;110060;1251;21009;-39
2023/10/14 09:43:23;;;;;;;;;11.00;10.00;;;;;22.95;45.57;99376.17;110027;1266;18551;-39
2023/10/14 09:45:50;;;;;;;;;10.00;9.00;;;;;-7.29;36.44;79504.35;109363;1266;1001574;-39
2023/10/14 09:48:18;;;;;;;;;10.00;9.00;;;;;-128.00;-1.00;-1.00;106491;1258;1007343;-37
2023/10/14 09:50:47;;;;;;;;;14.50;10.00;;;;;-128.00;-1.00;-1.00;106480;1259;1002711;-40
2023/10/14 09:53:14;;;;;;;;;8.50;8.00;;;;;-128.00;-1.00;-1.00;106514;1251;1006824;-38
2023/10/14 09:55:42;;;;;;;;;9.00;8.33;;;;;-128.00;-1.00;-1.00;106509;1251;1002530;-39
2023/10/14 09:58:09;;;;;;;;;10.00;9.00;;;;;-128.00;-1.00;-1.00;106487;1259;1002864;-39
2023/10/14 10:00:36;;;;;;;;;8.33;8.33;;;;;-128.00;-1.00;-1.00;106479;1258;1003204;-38
2023/10/14 10:03:06;;;;;;;;;6.00;6.00;;;;;-128.00;-1.00;-1.00;106489;1258;1003284;-38
2023/10/14 10:05:38;;;;;;;;;10.00;9.67;;;;;-128.00;-1.00;-1.00;106503;1259;1006183;-38
2023/10/14 10:08:07;;;;;;;;;6.00;6.00;;;;;-128.00;-1.00;-1.00;106490;1258;1006236;-38
2023/10/14 10:10:36;;;;;;;;;7.00;7.00;;;;;-128.00;-1.00;-1.00;106485;1251;1007599;-39
2023/10/14 10:13:03;;;;;;;;;6.00;6.00;;;;;-128.00;-1.00;-1.00;106473;1259;1006745;-40
2023/10/14 10:15:35;;;;;;;;;6.00;5.00;;;;;-128.00;-1.00;-1.00;106510;1259;1003146;-40
2023/10/14 10:18:02;;;;;;;;;7.33;5.33;;;;;-128.00;-1.00;-1.00;106441;1251;1007464;-40
2023/10/14 10:20:29;;;;;;;;;8.00;8.00;;;;;-128.00;-1.00;-1.00;106440;1259;1003100;-40
2023/10/14 10:22:57;;;;;;;;;6.00;6.00;;;;;-128.00;-1.00;-1.00;106484;1259;1003408;-38
2023/10/14 10:25:26;;;;;;;;;4.00;4.00;;;;;-128.00;-1.00;-1.00;106509;1259;1002790;-38
2023/10/14 10:27:55;;;;;;;;;8.00;6.00;;;;;-128.00;-1.00;-1.00;106507;1258;1006337;-38
2023/10/14 10:30:22;;;;;;;;;4.00;4.00;;;;;-128.00;-1.00;-1.00;106504;1259;1006827;-40
2023/10/14 10:32:50;;;;;;;;;4.67;4.67;;;;;-128.00;-1.00;-1.00;106500;1258;1002697;-38
2023/10/14 10:35:18;;;;;;;;;5.50;4.50;;;;;-128.00;-1.00;-1.00;106481;1258;1003744;-38
2023/10/14 10:37:46;;;;;;;;;6.00;6.00;;;;;-128.00;-1.00;-1.00;106506;1258;1002757;-38
2023/10/14 10:40:14;;;;;;;;;6.00;5.00;;;;;-128.00;-1.00;-1.00;106511;1259;1006896;-41
2023/10/14 10:42:41;;;;;;;;;5.00;5.00;;;;;-128.00;-1.00;-1.00;106506;1251;1002769;-38
2023/10/14 10:45:10;;;;;;;;;4.00;4.00;;;;;-128.00;-1.00;-1.00;106464;1251;1002881;-40
2023/10/14 10:47:37;;;;;;;;;4.33;4.00;;;;;-128.00;-1.00;-1.00;106499;1258;1006741;-40
2023/10/14 10:50:04;;;;;;;;;5.00;4.00;;;;;-128.00;-1.00;-1.00;106483;1258;1002442;-39
2023/10/14 10:52:36;;;;;;;;;2.00;2.00;;;;;-128.00;-1.00;-1.00;106481;1266;1003104;-40
2023/10/14 10:55:03;;;;;;;;;2.00;2.00;;;;;-128.00;-1.00;-1.00;106511;1259;1007397;-38
2023/10/14 10:57:32;;;;;;;;;2.00;2.00;;;;;-128.00;-1.00;-1.00;106507;1258;1002616;-39
2023/10/14 11:00:00;;;;;;;;;4.00;4.00;;;;;-128.00;-1.00;-1.00;106483;1259;1005953;-38
2023/10/14 11:02:29;;;;;;;;;5.67;4.00;;;;;-128.00;-1.00;-1.00;106500;1251;1004813;-38
2023/10/14 11:04:57;;;;;;;;;2.00;2.00;;;;;-128.00;-1.00;-1.00;106513;1251;1006699;-38
2023/10/14 11:07:24;;;;;;;;;2.00;2.00;;;;;-128.00;-1.00;-1.00;106505;1259;1002197;-38
2023/10/14 11:09:51;;;;;;;;;2.00;2.00;;;;;-128.00;-1.00;-1.00;106491;1259;1002851;-37
2023/10/14 11:12:19;;;;;;;;;2.00;2.00;;;;;-128.00;-1.00;-1.00;106484;1259;1003612;-37
2023/10/14 11:14:48;;;;;;;;;2.00;2.00;;;;;-128.00;-1.00;-1.00;106543;1259;1002798;-38
2023/10/14 11:17:16;;;;;;;;;2.00;2.00;;;;;-128.00;-1.00;-1.00;106502;1259;1007540;-37
2023/10/14 11:19:44;;;;;;;;;2.00;2.00;;;;;-128.00;-1.00;-1.00;106505;1258;1002929;-38
2023/10/14 11:22:12;;;;;;;;;4.00;2.00;;;;;-128.00;-1.00;-1.00;106529;1259;1005760;-38
2023/10/14 11:24:42;;;;;;;;;3.00;2.00;;;;;-128.00;-1.00;-1.00;106515;1259;1002765;-38
2023/10/14 11:27:09;;;;;;;;;2.00;2.00;;;;;-128.00;-1.00;-1.00;106480;1259;1006161;-39
2023/10/14 11:29:36;;;;;;;;;6.00;6.00;;;;;-128.00;-1.00;-1.00;106479;1266;1002199;-38
2023/10/14 11:32:05;;;;;;;;;50.00;43.00;;;;;-128.00;-1.00;-1.00;106516;1258;1004332;-38
2023/10/14 11:34:32;;;;;;;;;89.00;71.00;;;;;-128.00;-1.00;-1.00;106494;1258;1006455;-39